776  
SXUS55 KMSO 232043  
OSOMSO  
MONTANA AWOS SUMMARY  
NATIONAL WEATHER SERVICE MISSOULA MT  
243 PM MDT SUN JUL 23 2017  
 
MONTANA AWOS REPORTS  
 
LAUREL |K6S8 232035Z AUTO 00000KT 25SM 33/05 A2997 RMK AO1 T03330050  
 
CLICK HERE TO GO TO PREVIOUS BULLETINS.

The Nexlab MT Page
The Nexlab ID Page Main Text Page